sensor_id;sensor_type;location;lat;lon;timestamp;temperature;humidity
72602;DHT22;60644;55.858;37.390;2022-07-18T00:00:11;0.00;0.00
72602;DHT22;60644;55.858;37.390;2022-07-18T00:02:38;0.00;0.00
72602;DHT22;60644;55.858;37.390;2022-07-18T00:05:04;0.00;0.00
72602;DHT22;60644;55.858;37.390;2022-07-18T00:07:30;0.00;0.00
72602;DHT22;60644;55.858;37.390;2022-07-18T00:09:56;0.00;0.00
72602;DHT22;60644;55.858;37.390;2022-07-18T00:12:22;0.00;0.00
72602;DHT22;60644;55.858;37.390;2022-07-18T00:14:48;0.00;0.00
72602;DHT22;60644;55.858;37.390;2022-07-18T00:17:14;0.00;0.00
72602;DHT22;60644;55.858;37.390;2022-07-18T00:19:40;0.00;0.00
72602;DHT22;60644;55.858;37.390;2022-07-18T00:22:06;0.00;0.00
72602;DHT22;60644;55.858;37.390;2022-07-18T00:24:33;0.00;0.00
72602;DHT22;60644;55.858;37.390;2022-07-18T00:26:59;0.00;0.00
72602;DHT22;60644;55.858;37.390;2022-07-18T00:29:26;0.00;0.00
72602;DHT22;60644;55.858;37.390;2022-07-18T00:31:52;0.00;0.00
72602;DHT22;60644;55.858;37.390;2022-07-18T00:34:18;0.00;0.00
72602;DHT22;60644;55.858;37.390;2022-07-18T00:36:44;0.00;0.00
72602;DHT22;60644;55.858;37.390;2022-07-18T00:39:10;0.00;0.00
72602;DHT22;60644;55.858;37.390;2022-07-18T00:41:36;0.00;0.00
72602;DHT22;60644;55.858;37.390;2022-07-18T00:44:02;0.00;0.00
72602;DHT22;60644;55.858;37.390;2022-07-18T00:46:30;0.00;0.00
72602;DHT22;60644;55.858;37.390;2022-07-18T00:48:56;0.00;0.00
72602;DHT22;60644;55.858;37.390;2022-07-18T00:51:22;0.00;0.00
72602;DHT22;60644;55.858;37.390;2022-07-18T00:53:50;0.00;0.00
72602;DHT22;60644;55.858;37.390;2022-07-18T00:56:17;0.00;0.00
72602;DHT22;60644;55.858;37.390;2022-07-18T00:58:44;0.00;0.00
72602;DHT22;60644;55.858;37.390;2022-07-18T01:01:11;0.00;0.00
72602;DHT22;60644;55.858;37.390;2022-07-18T01:03:55;0.00;0.00
72602;DHT22;60644;55.858;37.390;2022-07-18T01:06:22;0.00;0.00
72602;DHT22;60644;55.858;37.390;2022-07-18T01:08:48;0.00;0.00
72602;DHT22;60644;55.858;37.390;2022-07-18T01:11:14;0.00;0.00
72602;DHT22;60644;55.858;37.390;2022-07-18T01:13:41;0.00;0.00
72602;DHT22;60644;55.858;37.390;2022-07-18T01:16:07;0.00;0.00
72602;DHT22;60644;55.858;37.390;2022-07-18T01:18:33;0.00;0.00
72602;DHT22;60644;55.858;37.390;2022-07-18T01:20:59;0.00;0.00
72602;DHT22;60644;55.858;37.390;2022-07-18T01:23:25;0.00;0.00
72602;DHT22;60644;55.858;37.390;2022-07-18T01:25:51;0.00;0.00
72602;DHT22;60644;55.858;37.390;2022-07-18T01:28:18;0.00;0.00
72602;DHT22;60644;55.858;37.390;2022-07-18T01:30:44;0.00;0.00
72602;DHT22;60644;55.858;37.390;2022-07-18T01:33:10;0.00;0.00
72602;DHT22;60644;55.858;37.390;2022-07-18T01:35:36;0.00;0.00
72602;DHT22;60644;55.858;37.390;2022-07-18T01:38:03;0.00;0.00
72602;DHT22;60644;55.858;37.390;2022-07-18T01:40:30;0.00;0.00
72602;DHT22;60644;55.858;37.390;2022-07-18T01:42:56;0.00;0.00
72602;DHT22;60644;55.858;37.390;2022-07-18T01:45:22;0.00;0.00
72602;DHT22;60644;55.858;37.390;2022-07-18T01:47:49;0.00;0.00
72602;DHT22;60644;55.858;37.390;2022-07-18T01:50:16;0.00;0.00
72602;DHT22;60644;55.858;37.390;2022-07-18T01:52:42;0.00;0.00
72602;DHT22;60644;55.858;37.390;2022-07-18T01:55:09;0.00;0.00
72602;DHT22;60644;55.858;37.390;2022-07-18T01:57:36;0.00;0.00
72602;DHT22;60644;55.858;37.390;2022-07-18T02:00:04;0.00;0.00
72602;DHT22;60644;55.858;37.390;2022-07-18T02:02:31;0.00;0.00
72602;DHT22;60644;55.858;37.390;2022-07-18T02:04:57;0.00;0.00
72602;DHT22;60644;55.858;37.390;2022-07-18T02:07:27;0.00;0.00
72602;DHT22;60644;55.858;37.390;2022-07-18T02:09:54;0.00;0.00
72602;DHT22;60644;55.858;37.390;2022-07-18T02:12:20;0.00;0.00
72602;DHT22;60644;55.858;37.390;2022-07-18T02:14:47;0.00;0.00
72602;DHT22;60644;55.858;37.390;2022-07-18T02:17:13;0.00;0.00
72602;DHT22;60644;55.858;37.390;2022-07-18T02:19:39;0.00;0.00
72602;DHT22;60644;55.858;37.390;2022-07-18T02:22:05;0.00;0.00
72602;DHT22;60644;55.858;37.390;2022-07-18T02:24:31;0.00;0.00
72602;DHT22;60644;55.858;37.390;2022-07-18T02:26:58;0.00;0.00
72602;DHT22;60644;55.858;37.390;2022-07-18T02:29:26;0.00;0.00
72602;DHT22;60644;55.858;37.390;2022-07-18T02:31:52;0.00;0.00
72602;DHT22;60644;55.858;37.390;2022-07-18T02:34:19;0.00;0.00
72602;DHT22;60644;55.858;37.390;2022-07-18T02:36:45;0.00;0.00
72602;DHT22;60644;55.858;37.390;2022-07-18T02:39:11;0.00;0.00
72602;DHT22;60644;55.858;37.390;2022-07-18T02:41:37;0.00;0.00
72602;DHT22;60644;55.858;37.390;2022-07-18T02:44:07;0.00;0.00
72602;DHT22;60644;55.858;37.390;2022-07-18T02:46:33;0.00;0.00
72602;DHT22;60644;55.858;37.390;2022-07-18T02:48:59;0.00;0.00
72602;DHT22;60644;55.858;37.390;2022-07-18T02:51:28;0.00;0.00
72602;DHT22;60644;55.858;37.390;2022-07-18T02:53:55;0.00;0.00
72602;DHT22;60644;55.858;37.390;2022-07-18T02:56:21;0.00;0.00
72602;DHT22;60644;55.858;37.390;2022-07-18T02:58:47;0.00;0.00
72602;DHT22;60644;55.858;37.390;2022-07-18T03:01:13;0.00;0.00
72602;DHT22;60644;55.858;37.390;2022-07-18T03:03:39;0.00;0.00
72602;DHT22;60644;55.858;37.390;2022-07-18T03:06:05;0.00;0.00
72602;DHT22;60644;55.858;37.390;2022-07-18T03:08:31;0.00;0.00
72602;DHT22;60644;55.858;37.390;2022-07-18T03:10:57;0.00;0.00
72602;DHT22;60644;55.858;37.390;2022-07-18T03:13:23;0.00;0.00
72602;DHT22;60644;55.858;37.390;2022-07-18T03:15:49;0.00;0.00
72602;DHT22;60644;55.858;37.390;2022-07-18T03:18:15;0.00;0.00
72602;DHT22;60644;55.858;37.390;2022-07-18T03:20:43;0.00;0.00
72602;DHT22;60644;55.858;37.390;2022-07-18T03:23:09;0.00;0.00
72602;DHT22;60644;55.858;37.390;2022-07-18T03:25:35;0.00;0.00
72602;DHT22;60644;55.858;37.390;2022-07-18T03:28:01;0.00;0.00
72602;DHT22;60644;55.858;37.390;2022-07-18T03:30:27;0.00;0.00
72602;DHT22;60644;55.858;37.390;2022-07-18T03:32:53;0.00;0.00
72602;DHT22;60644;55.858;37.390;2022-07-18T03:35:19;0.00;0.00
72602;DHT22;60644;55.858;37.390;2022-07-18T03:37:45;0.00;0.00
72602;DHT22;60644;55.858;37.390;2022-07-18T03:40:11;0.00;0.00
72602;DHT22;60644;55.858;37.390;2022-07-18T03:42:38;0.00;0.00
72602;DHT22;60644;55.858;37.390;2022-07-18T03:45:05;0.00;0.00
72602;DHT22;60644;55.858;37.390;2022-07-18T03:47:32;0.00;0.00
72602;DHT22;60644;55.858;37.390;2022-07-18T03:49:58;0.00;0.00
72602;DHT22;60644;55.858;37.390;2022-07-18T03:52:23;0.00;0.00
72602;DHT22;60644;55.858;37.390;2022-07-18T03:54:49;0.00;0.00
72602;DHT22;60644;55.858;37.390;2022-07-18T03:57:16;0.00;0.00
72602;DHT22;60644;55.858;37.390;2022-07-18T03:59:42;0.00;0.00
72602;DHT22;60644;55.858;37.390;2022-07-18T04:02:08;0.00;0.00
72602;DHT22;60644;55.858;37.390;2022-07-18T04:04:33;0.00;0.00
72602;DHT22;60644;55.858;37.390;2022-07-18T04:06:59;0.00;0.00
72602;DHT22;60644;55.858;37.390;2022-07-18T04:09:26;0.00;0.00
72602;DHT22;60644;55.858;37.390;2022-07-18T04:11:53;0.00;0.00
72602;DHT22;60644;55.858;37.390;2022-07-18T04:14:18;0.00;0.00
72602;DHT22;60644;55.858;37.390;2022-07-18T04:16:44;0.00;0.00
72602;DHT22;60644;55.858;37.390;2022-07-18T04:19:10;0.00;0.00
72602;DHT22;60644;55.858;37.390;2022-07-18T04:21:36;0.00;0.00
72602;DHT22;60644;55.858;37.390;2022-07-18T04:24:03;0.00;0.00
72602;DHT22;60644;55.858;37.390;2022-07-18T04:26:29;0.00;0.00
72602;DHT22;60644;55.858;37.390;2022-07-18T04:28:54;0.00;0.00
72602;DHT22;60644;55.858;37.390;2022-07-18T04:31:20;0.00;0.00
72602;DHT22;60644;55.858;37.390;2022-07-18T04:33:46;0.00;0.00
72602;DHT22;60644;55.858;37.390;2022-07-18T04:36:12;0.00;0.00
72602;DHT22;60644;55.858;37.390;2022-07-18T04:38:38;0.00;0.00
72602;DHT22;60644;55.858;37.390;2022-07-18T04:41:05;0.00;0.00
72602;DHT22;60644;55.858;37.390;2022-07-18T04:43:31;0.00;0.00
72602;DHT22;60644;55.858;37.390;2022-07-18T04:45:57;0.00;0.00
72602;DHT22;60644;55.858;37.390;2022-07-18T04:48:23;0.00;0.00
72602;DHT22;60644;55.858;37.390;2022-07-18T04:50:49;0.00;0.00
72602;DHT22;60644;55.858;37.390;2022-07-18T04:53:16;0.00;0.00
72602;DHT22;60644;55.858;37.390;2022-07-18T04:55:42;0.00;0.00
72602;DHT22;60644;55.858;37.390;2022-07-18T04:58:08;0.00;0.00
72602;DHT22;60644;55.858;37.390;2022-07-18T05:00:34;0.00;0.00
72602;DHT22;60644;55.858;37.390;2022-07-18T05:03:01;0.00;0.00
72602;DHT22;60644;55.858;37.390;2022-07-18T05:05:27;0.00;0.00
72602;DHT22;60644;55.858;37.390;2022-07-18T05:07:54;0.00;0.00
72602;DHT22;60644;55.858;37.390;2022-07-18T05:10:23;0.00;0.00
72602;DHT22;60644;55.858;37.390;2022-07-18T05:12:53;0.00;0.00
72602;DHT22;60644;55.858;37.390;2022-07-18T05:15:21;0.00;0.00
72602;DHT22;60644;55.858;37.390;2022-07-18T05:17:51;0.00;0.00
72602;DHT22;60644;55.858;37.390;2022-07-18T05:20:20;0.00;0.00
72602;DHT22;60644;55.858;37.390;2022-07-18T05:22:47;0.00;0.00
72602;DHT22;60644;55.858;37.390;2022-07-18T05:25:13;0.00;0.00
72602;DHT22;60644;55.858;37.390;2022-07-18T05:27:40;0.00;0.00
72602;DHT22;60644;55.858;37.390;2022-07-18T05:30:08;0.00;0.00
72602;DHT22;60644;55.858;37.390;2022-07-18T05:32:36;0.00;0.00
72602;DHT22;60644;55.858;37.390;2022-07-18T05:35:03;0.00;0.00
72602;DHT22;60644;55.858;37.390;2022-07-18T05:37:29;0.00;0.00
72602;DHT22;60644;55.858;37.390;2022-07-18T05:39:55;0.00;0.00
72602;DHT22;60644;55.858;37.390;2022-07-18T05:42:21;0.00;0.00
72602;DHT22;60644;55.858;37.390;2022-07-18T05:44:48;0.00;0.00
72602;DHT22;60644;55.858;37.390;2022-07-18T05:47:14;0.00;0.00
72602;DHT22;60644;55.858;37.390;2022-07-18T05:49:40;0.00;0.00
72602;DHT22;60644;55.858;37.390;2022-07-18T05:52:07;0.00;0.00
72602;DHT22;60644;55.858;37.390;2022-07-18T05:54:33;0.00;0.00
72602;DHT22;60644;55.858;37.390;2022-07-18T05:56:59;0.00;0.00
72602;DHT22;60644;55.858;37.390;2022-07-18T05:59:24;0.00;0.00
72602;DHT22;60644;55.858;37.390;2022-07-18T06:01:50;0.00;0.00
72602;DHT22;60644;55.858;37.390;2022-07-18T06:04:16;0.00;0.00
72602;DHT22;60644;55.858;37.390;2022-07-18T06:06:42;0.00;0.00
72602;DHT22;60644;55.858;37.390;2022-07-18T06:09:08;0.00;0.00
72602;DHT22;60644;55.858;37.390;2022-07-18T06:11:35;0.00;0.00
72602;DHT22;60644;55.858;37.390;2022-07-18T06:14:01;0.00;0.00
72602;DHT22;60644;55.858;37.390;2022-07-18T06:16:30;0.00;0.00
72602;DHT22;60644;55.858;37.390;2022-07-18T06:18:57;0.00;0.00
72602;DHT22;60644;55.858;37.390;2022-07-18T06:21:23;0.00;0.00
72602;DHT22;60644;55.858;37.390;2022-07-18T06:23:49;0.00;0.00
72602;DHT22;60644;55.858;37.390;2022-07-18T06:26:15;0.00;0.00
72602;DHT22;60644;55.858;37.390;2022-07-18T06:28:41;0.00;0.00
72602;DHT22;60644;55.858;37.390;2022-07-18T06:31:07;0.00;0.00
72602;DHT22;60644;55.858;37.390;2022-07-18T06:33:33;0.00;0.00
72602;DHT22;60644;55.858;37.390;2022-07-18T06:35:59;0.00;0.00
72602;DHT22;60644;55.858;37.390;2022-07-18T06:38:25;0.00;0.00
72602;DHT22;60644;55.858;37.390;2022-07-18T06:40:51;0.00;0.00
72602;DHT22;60644;55.858;37.390;2022-07-18T06:43:17;0.00;0.00
72602;DHT22;60644;55.858;37.390;2022-07-18T06:45:46;0.00;0.00
72602;DHT22;60644;55.858;37.390;2022-07-18T06:48:15;0.00;0.00
72602;DHT22;60644;55.858;37.390;2022-07-18T06:50:42;0.00;52.54
72602;DHT22;60644;55.858;37.390;2022-07-18T06:53:08;20.91;52.04
72602;DHT22;60644;55.858;37.390;2022-07-18T06:55:34;21.00;51.58
72602;DHT22;60644;55.858;37.390;2022-07-18T06:58:00;21.05;51.36
72602;DHT22;60644;55.858;37.390;2022-07-18T07:00:26;21.11;51.22
72602;DHT22;60644;55.858;37.390;2022-07-18T07:02:52;21.22;50.48
72602;DHT22;60644;55.858;37.390;2022-07-18T07:05:19;21.34;50.23
72602;DHT22;60644;55.858;37.390;2022-07-18T07:07:46;21.55;49.74
72602;DHT22;60644;55.858;37.390;2022-07-18T07:10:12;21.69;49.93
72602;DHT22;60644;55.858;37.390;2022-07-18T07:12:43;21.82;48.28
72602;DHT22;60644;55.858;37.390;2022-07-18T07:15:10;21.82;49.09
72602;DHT22;60644;55.858;37.390;2022-07-18T07:17:37;21.76;49.39
72602;DHT22;60644;55.858;37.390;2022-07-18T07:20:05;21.65;47.96
72602;DHT22;60644;55.858;37.390;2022-07-18T07:22:32;21.61;48.33
72602;DHT22;60644;55.858;37.390;2022-07-18T07:24:58;21.70;48.32
72602;DHT22;60644;55.858;37.390;2022-07-18T07:27:24;21.97;47.61
72602;DHT22;60644;55.858;37.390;2022-07-18T07:29:50;0.00;0.00
72602;DHT22;60644;55.858;37.390;2022-07-18T07:32:16;0.00;0.00
72602;DHT22;60644;55.858;37.390;2022-07-18T07:34:42;0.00;0.00
72602;DHT22;60644;55.858;37.390;2022-07-18T07:37:08;0.00;0.00
72602;DHT22;60644;55.858;37.390;2022-07-18T07:39:35;0.00;0.00
72602;DHT22;60644;55.858;37.390;2022-07-18T07:42:01;0.00;0.00
72602;DHT22;60644;55.858;37.390;2022-07-18T07:44:27;0.00;0.00
72602;DHT22;60644;55.858;37.390;2022-07-18T07:46:53;0.00;0.00
72602;DHT22;60644;55.858;37.390;2022-07-18T07:49:19;0.00;0.00
72602;DHT22;60644;55.858;37.390;2022-07-18T07:51:44;0.00;0.00
72602;DHT22;60644;55.858;37.390;2022-07-18T07:54:10;0.00;0.00
72602;DHT22;60644;55.858;37.390;2022-07-18T07:56:36;0.00;0.00
72602;DHT22;60644;55.858;37.390;2022-07-18T07:59:02;0.00;0.00
72602;DHT22;60644;55.858;37.390;2022-07-18T08:01:28;0.00;0.00
72602;DHT22;60644;55.858;37.390;2022-07-18T08:03:54;0.00;0.00
72602;DHT22;60644;55.858;37.390;2022-07-18T08:06:20;0.00;0.00
72602;DHT22;60644;55.858;37.390;2022-07-18T08:08:46;0.00;0.00
72602;DHT22;60644;55.858;37.390;2022-07-18T08:11:12;0.00;0.00
72602;DHT22;60644;55.858;37.390;2022-07-18T08:13:38;0.00;0.00
72602;DHT22;60644;55.858;37.390;2022-07-18T08:16:04;0.00;0.00
72602;DHT22;60644;55.858;37.390;2022-07-18T08:18:30;0.00;0.00
72602;DHT22;60644;55.858;37.390;2022-07-18T08:20:56;0.00;0.00
72602;DHT22;60644;55.858;37.390;2022-07-18T08:23:22;0.00;0.00
72602;DHT22;60644;55.858;37.390;2022-07-18T08:25:48;0.00;0.00
72602;DHT22;60644;55.858;37.390;2022-07-18T08:28:14;0.00;0.00
72602;DHT22;60644;55.858;37.390;2022-07-18T08:30:40;0.00;0.00
72602;DHT22;60644;55.858;37.390;2022-07-18T08:33:06;0.00;0.00
72602;DHT22;60644;55.858;37.390;2022-07-18T08:35:33;0.00;0.00
72602;DHT22;60644;55.858;37.390;2022-07-18T08:38:01;0.00;0.00
72602;DHT22;60644;55.858;37.390;2022-07-18T08:40:27;0.00;0.00
72602;DHT22;60644;55.858;37.390;2022-07-18T08:42:55;0.00;0.00
72602;DHT22;60644;55.858;37.390;2022-07-18T08:45:22;0.00;0.00
72602;DHT22;60644;55.858;37.390;2022-07-18T08:47:49;0.00;0.00
72602;DHT22;60644;55.858;37.390;2022-07-18T08:50:15;0.00;0.00
72602;DHT22;60644;55.858;37.390;2022-07-18T08:52:42;0.00;0.00
72602;DHT22;60644;55.858;37.390;2022-07-18T08:55:08;0.00;0.00
72602;DHT22;60644;55.858;37.390;2022-07-18T08:57:35;0.00;0.00
72602;DHT22;60644;55.858;37.390;2022-07-18T09:00:08;0.00;0.00
72602;DHT22;60644;55.858;37.390;2022-07-18T09:02:35;0.00;0.00
72602;DHT22;60644;55.858;37.390;2022-07-18T09:05:03;0.00;0.00
72602;DHT22;60644;55.858;37.390;2022-07-18T09:07:32;0.00;0.00
72602;DHT22;60644;55.858;37.390;2022-07-18T09:10:02;0.00;0.00
72602;DHT22;60644;55.858;37.390;2022-07-18T09:12:29;0.00;0.00
72602;DHT22;60644;55.858;37.390;2022-07-18T09:15:09;0.00;0.00
72602;DHT22;60644;55.858;37.390;2022-07-18T09:17:40;0.00;0.00
72602;DHT22;60644;55.858;37.390;2022-07-18T09:20:12;0.00;0.00
72602;DHT22;60644;55.858;37.390;2022-07-18T09:22:41;0.00;0.00
72602;DHT22;60644;55.858;37.390;2022-07-18T09:25:13;0.00;0.00
72602;DHT22;60644;55.858;37.390;2022-07-18T09:27:45;0.00;0.00
72602;DHT22;60644;55.858;37.390;2022-07-18T09:30:31;0.00;0.00
72602;DHT22;60644;55.858;37.390;2022-07-18T09:36:05;0.00;0.00
72602;DHT22;60644;55.858;37.390;2022-07-18T09:38:29;0.00;0.00
72602;DHT22;60644;55.858;37.390;2022-07-18T09:40:55;0.00;0.00
72602;DHT22;60644;55.858;37.390;2022-07-18T09:43:24;0.00;0.00
72602;DHT22;60644;55.858;37.390;2022-07-18T09:45:53;0.00;0.00
72602;DHT22;60644;55.858;37.390;2022-07-18T09:50:53;0.00;0.00
72602;DHT22;60644;55.858;37.390;2022-07-18T09:53:25;0.00;0.00
72602;DHT22;60644;55.858;37.390;2022-07-18T09:55:54;0.00;0.00
72602;DHT22;60644;55.858;37.390;2022-07-18T09:58:22;0.00;0.00
72602;DHT22;60644;55.858;37.390;2022-07-18T10:00:49;0.00;0.00
72602;DHT22;60644;55.858;37.390;2022-07-18T10:03:15;0.00;0.00
72602;DHT22;60644;55.858;37.390;2022-07-18T10:05:43;0.00;0.00
72602;DHT22;60644;55.858;37.390;2022-07-18T10:08:15;0.00;0.00
72602;DHT22;60644;55.858;37.390;2022-07-18T10:10:42;0.00;0.00
72602;DHT22;60644;55.858;37.390;2022-07-18T10:13:09;0.00;0.00
72602;DHT22;60644;55.858;37.390;2022-07-18T10:15:37;0.00;0.00
72602;DHT22;60644;55.858;37.390;2022-07-18T10:18:05;0.00;0.00
72602;DHT22;60644;55.858;37.390;2022-07-18T10:20:38;0.00;0.00
72602;DHT22;60644;55.858;37.390;2022-07-18T10:23:16;0.00;0.00
72602;DHT22;60644;55.858;37.390;2022-07-18T10:25:43;0.00;0.00
72602;DHT22;60644;55.858;37.390;2022-07-18T10:28:10;0.00;0.00
72602;DHT22;60644;55.858;37.390;2022-07-18T10:33:39;0.00;0.00
72602;DHT22;60644;55.858;37.390;2022-07-18T10:36:17;0.00;0.00
72602;DHT22;60644;55.858;37.390;2022-07-18T10:39:08;0.00;0.00
72602;DHT22;60644;55.858;37.390;2022-07-18T11:00:09;0.00;0.00
72602;DHT22;60644;55.858;37.390;2022-07-18T11:02:40;0.00;0.00
72602;DHT22;60644;55.858;37.390;2022-07-18T11:21:27;0.00;0.00
72602;DHT22;60644;55.858;37.390;2022-07-18T11:24:05;0.00;0.00
72602;DHT22;60644;55.858;37.390;2022-07-18T11:26:33;0.00;0.00
72602;DHT22;60644;55.858;37.390;2022-07-18T11:29:04;0.00;0.00
72602;DHT22;60644;55.858;37.390;2022-07-18T11:31:32;0.00;0.00
72602;DHT22;60644;55.858;37.390;2022-07-18T11:34:08;0.00;0.00
72602;DHT22;60644;55.858;37.390;2022-07-18T11:36:34;0.00;0.00
72602;DHT22;60644;55.858;37.390;2022-07-18T11:39:03;0.00;0.00
72602;DHT22;60644;55.858;37.390;2022-07-18T11:41:29;0.00;0.00
72602;DHT22;60644;55.858;37.390;2022-07-18T11:43:56;0.00;0.00
72602;DHT22;60644;55.858;37.390;2022-07-18T11:46:26;0.00;0.00
72602;DHT22;60644;55.858;37.390;2022-07-18T11:49:02;0.00;0.00
72602;DHT22;60644;55.858;37.390;2022-07-18T11:51:39;0.00;0.00
72602;DHT22;60644;55.858;37.390;2022-07-18T11:54:06;0.00;0.00
72602;DHT22;60644;55.858;37.390;2022-07-18T11:56:32;0.00;0.00
72602;DHT22;60644;55.858;37.390;2022-07-18T11:58:58;0.00;0.00
72602;DHT22;60644;55.858;37.390;2022-07-18T12:01:33;0.00;0.00
72602;DHT22;60644;55.858;37.390;2022-07-18T12:03:59;0.00;0.00
72602;DHT22;60644;55.858;37.390;2022-07-18T12:06:28;0.00;0.00
72602;DHT22;60644;55.858;37.390;2022-07-18T12:08:56;0.00;0.00
72602;DHT22;60644;55.858;37.390;2022-07-18T12:11:30;0.00;0.00
72602;DHT22;60644;55.858;37.390;2022-07-18T12:13:59;0.00;0.00
72602;DHT22;60644;55.858;37.390;2022-07-18T12:21:51;0.00;0.00
72602;DHT22;60644;55.858;37.390;2022-07-18T12:24:35;20.59;47.25
72602;DHT22;60644;55.858;37.390;2022-07-18T12:30:05;21.27;48.18
72602;DHT22;60644;55.858;37.390;2022-07-18T12:35:27;21.79;47.73
72602;DHT22;60644;55.858;37.390;2022-07-18T12:38:08;21.85;47.75
72602;DHT22;60644;55.858;37.390;2022-07-18T12:40:41;22.05;47.43
72602;DHT22;60644;55.858;37.390;2022-07-18T12:43:09;22.09;47.11
72602;DHT22;60644;55.858;37.390;2022-07-18T12:45:37;22.09;47.28
72602;DHT22;60644;55.858;37.390;2022-07-18T12:48:05;22.10;46.60
72602;DHT22;60644;55.858;37.390;2022-07-18T12:50:31;22.14;46.23
72602;DHT22;60644;55.858;37.390;2022-07-18T12:52:58;22.08;46.15
72602;DHT22;60644;55.858;37.390;2022-07-18T12:55:26;22.05;46.28
72602;DHT22;60644;55.858;37.390;2022-07-18T12:57:52;21.93;45.96
72602;DHT22;60644;55.858;37.390;2022-07-18T13:00:18;21.73;44.81
72602;DHT22;60644;55.858;37.390;2022-07-18T13:02:45;21.54;45.25
72602;DHT22;60644;55.858;37.390;2022-07-18T13:05:12;21.45;46.15
72602;DHT22;60644;55.858;37.390;2022-07-18T13:07:38;21.24;45.99
72602;DHT22;60644;55.858;37.390;2022-07-18T13:10:05;21.15;46.28
72602;DHT22;60644;55.858;37.390;2022-07-18T13:12:32;21.14;46.83
72602;DHT22;60644;55.858;37.390;2022-07-18T13:14:58;21.21;47.57
72602;DHT22;60644;55.858;37.390;2022-07-18T13:17:24;21.16;48.02
72602;DHT22;60644;55.858;37.390;2022-07-18T13:19:50;21.16;47.71
72602;DHT22;60644;55.858;37.390;2022-07-18T13:22:17;21.08;47.63
72602;DHT22;60644;55.858;37.390;2022-07-18T13:24:43;21.06;47.38
72602;DHT22;60644;55.858;37.390;2022-07-18T13:27:09;21.15;47.15
72602;DHT22;60644;55.858;37.390;2022-07-18T13:29:35;21.42;46.86
72602;DHT22;60644;55.858;37.390;2022-07-18T13:32:01;21.75;46.64
72602;DHT22;60644;55.858;37.390;2022-07-18T13:34:29;21.95;45.67
72602;DHT22;60644;55.858;37.390;2022-07-18T13:36:55;22.35;45.08
72602;DHT22;60644;55.858;37.390;2022-07-18T13:39:21;22.53;43.46
72602;DHT22;60644;55.858;37.390;2022-07-18T13:41:48;22.58;43.92
72602;DHT22;60644;55.858;37.390;2022-07-18T13:44:14;22.44;42.71
72602;DHT22;60644;55.858;37.390;2022-07-18T13:46:40;22.47;44.40
72602;DHT22;60644;55.858;37.390;2022-07-18T13:49:10;22.31;40.86
72602;DHT22;60644;55.858;37.390;2022-07-18T13:51:37;22.18;41.20
72602;DHT22;60644;55.858;37.390;2022-07-18T13:54:05;22.11;41.25
72602;DHT22;60644;55.858;37.390;2022-07-18T13:56:31;22.07;41.83
72602;DHT22;60644;55.858;37.390;2022-07-18T13:58:57;22.08;42.36
72602;DHT22;60644;55.858;37.390;2022-07-18T14:01:24;21.98;41.51
72602;DHT22;60644;55.858;37.390;2022-07-18T14:03:50;21.84;42.29
72602;DHT22;60644;55.858;37.390;2022-07-18T14:06:16;21.68;42.26
72602;DHT22;60644;55.858;37.390;2022-07-18T14:08:42;21.64;42.88
72602;DHT22;60644;55.858;37.390;2022-07-18T14:11:08;21.75;44.18
72602;DHT22;60644;55.858;37.390;2022-07-18T14:13:34;21.88;44.28
72602;DHT22;60644;55.858;37.390;2022-07-18T14:16:00;21.93;43.94
72602;DHT22;60644;55.858;37.390;2022-07-18T14:18:26;21.94;43.35
72602;DHT22;60644;55.858;37.390;2022-07-18T14:20:52;21.95;43.32
72602;DHT22;60644;55.858;37.390;2022-07-18T14:23:18;21.96;42.90
72602;DHT22;60644;55.858;37.390;2022-07-18T14:25:44;22.07;42.05
72602;DHT22;60644;55.858;37.390;2022-07-18T14:28:11;22.02;41.49
72602;DHT22;60644;55.858;37.390;2022-07-18T14:30:37;21.97;42.43
72602;DHT22;60644;55.858;37.390;2022-07-18T14:33:03;21.87;42.10
72602;DHT22;60644;55.858;37.390;2022-07-18T14:35:29;21.74;41.92
72602;DHT22;60644;55.858;37.390;2022-07-18T14:37:55;21.76;42.55
72602;DHT22;60644;55.858;37.390;2022-07-18T14:40:21;21.80;42.59
72602;DHT22;60644;55.858;37.390;2022-07-18T14:42:48;21.90;43.20
72602;DHT22;60644;55.858;37.390;2022-07-18T14:45:14;21.98;43.03
72602;DHT22;60644;55.858;37.390;2022-07-18T14:47:40;22.04;43.05
72602;DHT22;60644;55.858;37.390;2022-07-18T14:50:07;22.01;42.90
72602;DHT22;60644;55.858;37.390;2022-07-18T14:52:33;21.97;43.03
72602;DHT22;60644;55.858;37.390;2022-07-18T14:54:59;21.89;42.95
72602;DHT22;60644;55.858;37.390;2022-07-18T14:57:25;21.73;43.03
72602;DHT22;60644;55.858;37.390;2022-07-18T14:59:51;21.66;43.39
72602;DHT22;60644;55.858;37.390;2022-07-18T15:02:17;21.66;43.16
72602;DHT22;60644;55.858;37.390;2022-07-18T15:04:43;21.61;43.35
72602;DHT22;60644;55.858;37.390;2022-07-18T15:07:09;21.60;43.66
72602;DHT22;60644;55.858;37.390;2022-07-18T15:09:35;21.50;43.54
72602;DHT22;60644;55.858;37.390;2022-07-18T15:12:01;21.43;44.77
72602;DHT22;60644;55.858;37.390;2022-07-18T15:14:28;21.01;46.51
72602;DHT22;60644;55.858;37.390;2022-07-18T15:16:54;20.79;47.93
72602;DHT22;60644;55.858;37.390;2022-07-18T15:19:20;20.72;47.86
72602;DHT22;60644;55.858;37.390;2022-07-18T15:21:46;20.64;48.16
72602;DHT22;60644;55.858;37.390;2022-07-18T15:24:12;20.61;49.46
72602;DHT22;60644;55.858;37.390;2022-07-18T15:26:37;20.53;52.69
72602;DHT22;60644;55.858;37.390;2022-07-18T15:29:03;20.39;52.96
72602;DHT22;60644;55.858;37.390;2022-07-18T15:31:29;20.28;51.67
72602;DHT22;60644;55.858;37.390;2022-07-18T15:33:55;20.29;51.50
72602;DHT22;60644;55.858;37.390;2022-07-18T15:36:21;20.31;51.46
72602;DHT22;60644;55.858;37.390;2022-07-18T15:38:48;20.34;52.19
72602;DHT22;60644;55.858;37.390;2022-07-18T15:41:13;20.33;51.63
72602;DHT22;60644;55.858;37.390;2022-07-18T15:43:42;20.19;53.29
72602;DHT22;60644;55.858;37.390;2022-07-18T15:46:08;20.04;53.58
72602;DHT22;60644;55.858;37.390;2022-07-18T15:48:34;20.09;53.97
72602;DHT22;60644;55.858;37.390;2022-07-18T15:51:00;20.12;53.07
72602;DHT22;60644;55.858;37.390;2022-07-18T15:53:26;20.16;54.43
72602;DHT22;60644;55.858;37.390;2022-07-18T15:55:52;20.21;53.23
72602;DHT22;60644;55.858;37.390;2022-07-18T15:58:18;20.24;51.70
72602;DHT22;60644;55.858;37.390;2022-07-18T16:00:44;20.25;51.40
72602;DHT22;60644;55.858;37.390;2022-07-18T16:03:10;20.26;51.30
72602;DHT22;60644;55.858;37.390;2022-07-18T16:05:36;20.26;51.55
72602;DHT22;60644;55.858;37.390;2022-07-18T16:08:01;20.25;51.92
72602;DHT22;60644;55.858;37.390;2022-07-18T16:10:29;20.20;51.21
72602;DHT22;60644;55.858;37.390;2022-07-18T16:12:55;20.10;51.30
72602;DHT22;60644;55.858;37.390;2022-07-18T16:15:21;19.88;51.66
72602;DHT22;60644;55.858;37.390;2022-07-18T16:17:49;19.84;51.59
72602;DHT22;60644;55.858;37.390;2022-07-18T16:20:15;19.77;52.88
72602;DHT22;60644;55.858;37.390;2022-07-18T16:22:41;19.72;52.36
72602;DHT22;60644;55.858;37.390;2022-07-18T16:25:08;19.53;52.22
72602;DHT22;60644;55.858;37.390;2022-07-18T16:27:36;19.38;52.50
72602;DHT22;60644;55.858;37.390;2022-07-18T16:30:04;19.38;52.82